createdAt,value
2019-05-20T04:00:03.467Z,99.90
2019-05-20T04:02:36.486Z,99.90
2019-05-20T04:05:03.519Z,99.90
2019-05-20T04:07:29.844Z,99.90
2019-05-20T04:09:55.990Z,99.90
2019-05-20T04:12:22.064Z,99.90
2019-05-20T04:14:48.131Z,99.90
2019-05-20T04:17:14.187Z,99.90
2019-05-20T04:19:40.260Z,99.90
2019-05-20T04:22:06.449Z,99.90
2019-05-20T04:24:32.528Z,99.90
2019-05-20T04:26:59.080Z,99.90
2019-05-20T04:29:25.455Z,99.90
2019-05-20T04:31:51.514Z,99.90
2019-05-20T04:34:17.627Z,99.90
2019-05-20T04:36:43.676Z,99.90
2019-05-20T04:39:09.753Z,99.90
2019-05-20T04:41:36.067Z,99.90
2019-05-20T04:44:02.506Z,99.90
2019-05-20T04:46:28.658Z,99.90
2019-05-20T04:48:54.699Z,99.90
2019-05-20T04:51:20.889Z,99.90
2019-05-20T04:53:46.919Z,99.90
2019-05-20T04:56:12.969Z,99.90
2019-05-20T04:58:39.064Z,99.90
2019-05-20T05:01:05.123Z,99.90
2019-05-20T05:03:31.216Z,99.90
2019-05-20T05:05:57.446Z,99.90
2019-05-20T05:08:24.649Z,99.90
2019-05-20T05:10:51.493Z,99.90
2019-05-20T05:13:17.968Z,99.90
2019-05-20T05:15:44.535Z,99.90
2019-05-20T05:18:10.600Z,99.90
2019-05-20T05:20:36.699Z,99.90
2019-05-20T05:23:02.947Z,99.90
2019-05-20T05:25:29.039Z,99.90
2019-05-20T05:27:57.113Z,99.90
2019-05-20T05:30:23.166Z,99.90
2019-05-20T05:32:49.252Z,99.90
2019-05-20T05:35:17.146Z,99.90
2019-05-20T05:37:43.286Z,99.90
2019-05-20T05:40:10.003Z,99.90
2019-05-20T05:42:36.046Z,99.90
2019-05-20T05:45:04.626Z,99.90
2019-05-20T05:47:30.691Z,99.90
2019-05-20T05:49:56.788Z,99.90
2019-05-20T05:52:23.102Z,99.90
2019-05-20T05:54:49.226Z,99.90
2019-05-20T05:57:15.300Z,99.90
2019-05-20T05:59:41.375Z,99.90
2019-05-20T06:02:07.524Z,99.90
2019-05-20T06:04:33.817Z,99.90
2019-05-20T06:06:59.921Z,99.90
2019-05-20T06:09:25.982Z,99.90
2019-05-20T06:11:52.060Z,99.90
2019-05-20T06:14:18.123Z,99.90
2019-05-20T06:16:45.111Z,99.90
2019-05-20T06:19:11.252Z,99.90
2019-05-20T06:21:38.121Z,99.60
2019-05-20T06:24:04.230Z,99.40
2019-05-20T06:26:30.282Z,99.20
2019-05-20T06:28:57.064Z,99.30
2019-05-20T06:31:23.113Z,99.60
2019-05-20T06:33:49.298Z,99.90
2019-05-20T06:36:26.531Z,99.80
2019-05-20T06:38:45.595Z,99.90
2019-05-20T06:41:11.686Z,99.80
2019-05-20T06:43:38.759Z,99.80
2019-05-20T06:46:05.108Z,99.20
2019-05-20T06:48:31.223Z,99.00
2019-05-20T06:50:57.438Z,99.20
2019-05-20T06:53:23.492Z,99.10
2019-05-20T06:55:50.533Z,99.00
2019-05-20T06:58:16.618Z,99.40
2019-05-20T07:00:42.791Z,99.10
2019-05-20T07:03:10.024Z,98.70
2019-05-20T07:05:36.071Z,99.50
2019-05-20T07:08:02.537Z,99.40
2019-05-20T07:10:28.894Z,99.10
2019-05-20T07:12:55.024Z,98.20
2019-05-20T07:15:21.182Z,97.30
2019-05-20T07:17:47.243Z,97.10
2019-05-20T07:20:13.596Z,96.50
2019-05-20T07:22:54.530Z,95.70
2019-05-20T07:25:07.926Z,95.60
2019-05-20T07:27:34.024Z,95.20
2019-05-20T07:30:00.083Z,95.10
2019-05-20T07:32:31.121Z,95.10
2019-05-20T07:34:57.177Z,95.60
2019-05-20T07:37:25.007Z,95.60
2019-05-20T07:39:52.050Z,95.60
2019-05-20T07:42:18.085Z,94.60
2019-05-20T07:44:44.182Z,94.80
2019-05-20T07:47:11.359Z,93.70
2019-05-20T07:49:38.576Z,93.40
2019-05-20T07:52:04.868Z,94.20
2019-05-20T07:54:31.276Z,94.00
2019-05-20T07:57:01.318Z,93.40
2019-05-20T07:59:27.913Z,92.50
2019-05-20T08:01:54.952Z,91.90
2019-05-20T08:04:21.052Z,91.80
2019-05-20T08:06:47.220Z,92.20
2019-05-20T08:09:13.412Z,93.10
2019-05-20T08:11:39.537Z,93.70
2019-05-20T08:14:05.621Z,93.40
2019-05-20T08:16:32.278Z,93.40
2019-05-20T08:18:58.325Z,93.50
2019-05-20T08:21:25.493Z,93.60
2019-05-20T08:23:51.554Z,93.50
2019-05-20T08:26:19.510Z,93.60
2019-05-20T08:28:45.648Z,93.40
2019-05-20T08:31:11.775Z,93.60
2019-05-20T08:33:37.947Z,93.80
2019-05-20T08:36:05.043Z,93.20
2019-05-20T08:38:31.268Z,91.40
2019-05-20T08:40:57.394Z,91.90
2019-05-20T08:43:23.488Z,91.40
2019-05-20T08:45:49.664Z,93.30
2019-05-20T08:48:15.882Z,92.20
2019-05-20T08:50:42.175Z,91.60
2019-05-20T08:53:08.619Z,90.60
2019-05-20T08:55:34.956Z,90.50
2019-05-20T08:58:01.237Z,90.30
2019-05-20T09:00:27.499Z,90.00
2019-05-20T09:02:53.771Z,90.10
2019-05-20T09:05:19.830Z,90.60
2019-05-20T09:08:01.514Z,89.70
2019-05-20T09:10:14.134Z,87.60
2019-05-20T09:12:40.379Z,88.90
2019-05-20T09:15:08.440Z,88.20
2019-05-20T09:17:38.640Z,90.50
2019-05-20T09:20:04.903Z,90.20
2019-05-20T09:22:31.192Z,87.10
2019-05-20T09:25:03.953Z,87.50
2019-05-20T09:27:30.083Z,82.90
2019-05-20T09:29:56.420Z,85.40
2019-05-20T09:32:22.840Z,86.90
2019-05-20T09:35:09.454Z,85.10
2019-05-20T09:37:37.013Z,87.80
2019-05-20T09:40:04.182Z,87.60
2019-05-20T09:42:30.944Z,89.40
2019-05-20T09:45:01.822Z,85.30
2019-05-20T09:47:25.876Z,83.90
2019-05-20T09:49:51.970Z,83.40
2019-05-20T09:52:19.845Z,83.90
2019-05-20T09:54:46.812Z,83.20
2019-05-20T09:57:15.153Z,82.40
2019-05-20T09:59:43.635Z,84.70
2019-05-20T10:02:09.151Z,87.60
2019-05-20T10:04:35.202Z,86.30
2019-05-20T10:07:01.291Z,83.60
2019-05-20T10:09:28.148Z,82.50
2019-05-20T10:11:56.220Z,82.30
2019-05-20T10:14:28.836Z,82.70
2019-05-20T10:16:55.973Z,84.40
2019-05-20T10:19:23.787Z,84.80
2019-05-20T10:21:49.839Z,84.30
2019-05-20T10:24:16.964Z,83.80
2019-05-20T10:26:43.027Z,82.20
2019-05-20T10:29:10.233Z,80.90
2019-05-20T10:31:37.494Z,83.20
2019-05-20T10:34:03.522Z,80.70
2019-05-20T10:36:29.585Z,81.20
2019-05-20T10:38:59.534Z,85.90
2019-05-20T10:41:29.492Z,80.50
2019-05-20T10:43:54.858Z,82.70
2019-05-20T10:46:21.179Z,81.20
2019-05-20T10:48:48.481Z,78.60
2019-05-20T10:51:16.405Z,78.70
2019-05-20T10:53:43.140Z,77.80
2019-05-20T10:56:11.212Z,77.60
2019-05-20T10:58:39.656Z,80.10
2019-05-20T11:01:07.723Z,79.00
2019-05-20T11:03:33.856Z,80.80
2019-05-20T11:06:00.007Z,79.30
2019-05-20T11:08:26.069Z,76.60
2019-05-20T11:10:53.067Z,77.60
2019-05-20T11:13:19.220Z,80.30
2019-05-20T11:15:45.625Z,81.00
2019-05-20T11:18:13.672Z,80.40
2019-05-20T11:20:39.706Z,80.00
2019-05-20T11:23:05.786Z,79.40
2019-05-20T11:25:40.623Z,80.90
2019-05-20T11:28:06.756Z,81.90
2019-05-20T11:30:33.384Z,79.60
2019-05-20T11:32:59.457Z,81.00
2019-05-20T11:35:25.505Z,81.60
2019-05-20T11:37:51.761Z,84.60
2019-05-20T11:40:18.096Z,78.50
2019-05-20T11:42:45.313Z,78.70
2019-05-20T11:45:13.676Z,79.30
2019-05-20T11:47:39.732Z,78.00
2019-05-20T11:50:09.686Z,77.80
2019-05-20T11:52:35.832Z,80.50
2019-05-20T11:55:04.608Z,80.00
2019-05-20T11:57:30.705Z,79.60
2019-05-20T11:59:57.788Z,77.60
2019-05-20T12:02:23.822Z,75.40
2019-05-20T12:04:49.897Z,75.60
2019-05-20T12:07:15.941Z,77.20
2019-05-20T12:09:49.599Z,76.60
2019-05-20T12:12:10.730Z,76.20
2019-05-20T12:14:36.810Z,75.40
2019-05-20T12:17:02.869Z,74.90
2019-05-20T12:19:28.950Z,76.60
2019-05-20T12:21:55.075Z,75.90
2019-05-20T12:24:21.141Z,75.50
2019-05-20T12:26:47.229Z,75.00
2019-05-20T12:29:13.289Z,74.20
2019-05-20T12:31:39.778Z,75.10
2019-05-20T12:34:07.361Z,75.30
2019-05-20T12:36:33.412Z,76.70
2019-05-20T12:38:59.580Z,77.40
2019-05-20T12:41:26.948Z,77.40
2019-05-20T12:44:09.943Z,78.00
2019-05-20T12:46:21.025Z,77.50
2019-05-20T12:48:47.173Z,78.20
2019-05-20T12:51:14.705Z,79.40
2019-05-20T12:53:43.221Z,79.10
2019-05-20T12:56:09.401Z,82.00
2019-05-20T12:58:35.442Z,82.40
2019-05-20T13:01:02.670Z,85.80
2019-05-20T13:03:28.723Z,86.40
2019-05-20T13:05:54.942Z,89.80
2019-05-20T13:08:21.240Z,90.80
2019-05-20T13:10:47.378Z,92.10
2019-05-20T13:13:13.446Z,92.30
2019-05-20T13:15:39.487Z,93.00
2019-05-20T13:18:06.716Z,93.90
2019-05-20T13:20:33.389Z,94.00
2019-05-20T13:23:00.248Z,94.00
2019-05-20T13:25:26.492Z,95.00
2019-05-20T13:27:52.522Z,93.50
2019-05-20T13:30:19.773Z,94.40
2019-05-20T13:32:45.903Z,94.80
2019-05-20T13:35:12.476Z,95.00
2019-05-20T13:37:39.248Z,95.50
2019-05-20T13:40:05.900Z,95.70
2019-05-20T13:42:31.981Z,96.10
2019-05-20T13:44:58.130Z,95.90
2019-05-20T13:47:24.182Z,96.40
2019-05-20T13:49:50.252Z,96.80
2019-05-20T13:52:16.312Z,96.50
2019-05-20T13:54:42.381Z,97.40
2019-05-20T13:57:12.725Z,97.20
2019-05-20T13:59:36.609Z,97.10
2019-05-20T14:02:02.646Z,96.10
2019-05-20T14:04:28.709Z,96.40
2019-05-20T14:06:55.090Z,96.00
2019-05-20T14:09:21.230Z,97.00
2019-05-20T14:11:47.724Z,97.10
2019-05-20T14:14:14.470Z,96.90
2019-05-20T14:16:40.639Z,97.00
2019-05-20T14:19:07.849Z,96.40
2019-05-20T14:21:33.915Z,96.80
2019-05-20T14:24:01.661Z,97.10
2019-05-20T14:26:27.681Z,97.50
2019-05-20T14:28:55.246Z,97.30
2019-05-20T14:31:21.301Z,97.40
2019-05-20T14:33:47.367Z,97.20
2019-05-20T14:36:13.503Z,97.40
2019-05-20T14:38:39.570Z,97.60
2019-05-20T14:41:20.437Z,97.70
2019-05-20T14:43:34.048Z,97.50
2019-05-20T14:46:00.305Z,97.50
2019-05-20T14:48:26.336Z,97.60
2019-05-20T14:50:52.513Z,97.70
2019-05-20T14:53:18.599Z,98.00
2019-05-20T14:55:44.724Z,98.20
2019-05-20T14:58:11.895Z,98.20
2019-05-20T15:00:38.331Z,98.10
2019-05-20T15:03:04.414Z,98.40
2019-05-20T15:05:30.460Z,98.00
2019-05-20T15:07:56.994Z,98.50
2019-05-20T15:10:23.220Z,98.50
2019-05-20T15:12:49.298Z,98.50
2019-05-20T15:15:15.836Z,98.50
2019-05-20T15:17:41.895Z,98.30
2019-05-20T15:20:10.718Z,98.30
2019-05-20T15:22:36.785Z,98.10
2019-05-20T15:25:03.727Z,98.40
2019-05-20T15:27:30.191Z,98.20
2019-05-20T15:29:56.221Z,98.50
2019-05-20T15:32:22.255Z,98.30
2019-05-20T15:34:49.156Z,98.70
2019-05-20T15:37:15.314Z,99.10
2019-05-20T15:39:41.435Z,99.60
2019-05-20T15:42:10.206Z,99.70
2019-05-20T15:44:36.283Z,98.30
2019-05-20T15:47:02.671Z,97.50
2019-05-20T15:49:28.696Z,97.90
2019-05-20T15:51:54.768Z,98.00
2019-05-20T15:54:21.206Z,98.80
2019-05-20T15:56:47.268Z,98.90
2019-05-20T15:59:13.332Z,99.50
2019-05-20T16:01:39.599Z,99.60
2019-05-20T16:04:06.448Z,99.80
2019-05-20T16:06:32.479Z,99.90
2019-05-20T16:08:58.538Z,99.90
2019-05-20T16:11:25.558Z,99.90
2019-05-20T16:13:51.687Z,99.90
2019-05-20T16:16:17.756Z,99.90
2019-05-20T16:18:44.509Z,99.90
2019-05-20T16:21:10.646Z,99.90
2019-05-20T16:23:36.734Z,99.60
2019-05-20T16:26:03.401Z,99.60
2019-05-20T16:28:29.463Z,99.20
2019-05-20T16:30:55.494Z,99.20
2019-05-20T16:33:23.095Z,99.40
2019-05-20T16:35:49.140Z,99.70
2019-05-20T16:38:15.191Z,99.80
2019-05-20T16:40:41.961Z,99.90
2019-05-20T16:43:08.082Z,99.80
2019-05-20T16:45:34.149Z,99.70
2019-05-20T16:48:00.716Z,99.70
2019-05-20T16:50:26.809Z,99.80
2019-05-20T16:52:52.964Z,99.20
2019-05-20T16:55:19.876Z,99.30
2019-05-20T16:57:45.943Z,99.40
2019-05-20T17:00:30.037Z,99.60
2019-05-20T17:02:41.046Z,99.80
2019-05-20T17:05:08.462Z,99.90
2019-05-20T17:07:35.281Z,99.90
2019-05-20T17:10:01.711Z,99.90
2019-05-20T17:12:28.479Z,99.90
2019-05-20T17:14:54.529Z,99.90
2019-05-20T17:17:20.573Z,99.90
2019-05-20T17:19:47.432Z,99.90
2019-05-20T17:22:20.086Z,99.90
2019-05-20T17:24:47.464Z,99.90
2019-05-20T17:27:14.082Z,99.90
2019-05-20T17:29:40.123Z,99.90
2019-05-20T17:32:06.224Z,99.90
2019-05-20T17:34:32.275Z,99.90
2019-05-20T17:36:58.718Z,99.90
2019-05-20T17:39:26.393Z,99.90
2019-05-20T17:41:52.559Z,99.90
2019-05-20T17:44:18.713Z,99.90
2019-05-20T17:46:44.737Z,99.90
2019-05-20T17:49:10.769Z,99.90
2019-05-20T17:51:38.296Z,99.90
2019-05-20T17:54:04.388Z,99.90
2019-05-20T17:56:30.541Z,99.90
2019-05-20T17:58:56.566Z,99.90
2019-05-20T18:01:22.604Z,99.90
2019-05-20T18:03:48.836Z,99.90
2019-05-20T18:06:15.054Z,99.90
2019-05-20T18:08:42.996Z,99.90
2019-05-20T18:11:09.025Z,99.90
2019-05-20T18:13:35.171Z,99.90
2019-05-20T18:16:01.606Z,99.90
2019-05-20T18:18:27.636Z,99.90
2019-05-20T18:20:56.550Z,99.90
2019-05-20T18:23:23.770Z,99.90
2019-05-20T18:25:49.907Z,99.90
2019-05-20T18:28:15.933Z,99.90
2019-05-20T18:30:43.906Z,99.90
2019-05-20T18:33:10.022Z,99.90
2019-05-20T18:35:36.048Z,99.90
2019-05-20T18:38:02.780Z,99.90
2019-05-20T18:40:28.850Z,99.90
2019-05-20T18:42:54.994Z,99.90
2019-05-20T18:45:21.666Z,99.90
2019-05-20T18:47:47.693Z,99.90
2019-05-20T18:50:21.794Z,99.90
2019-05-20T18:52:47.887Z,99.90
2019-05-20T18:55:13.957Z,99.90
2019-05-20T18:57:40.035Z,99.90
2019-05-20T19:00:08.311Z,99.90
2019-05-20T19:02:34.478Z,99.90
2019-05-20T19:05:00.514Z,99.90
2019-05-20T19:07:26.642Z,99.90
2019-05-20T19:09:53.368Z,99.90
2019-05-20T19:12:19.613Z,99.90
2019-05-20T19:14:46.041Z,99.90
2019-05-20T19:17:13.674Z,99.90
2019-05-20T19:19:39.830Z,99.90
2019-05-20T19:22:05.936Z,99.90
2019-05-20T19:24:32.180Z,99.90
2019-05-20T19:26:58.221Z,99.90
2019-05-20T19:29:24.350Z,99.90
2019-05-20T19:32:01.668Z,99.90
2019-05-20T19:34:24.775Z,99.90
2019-05-20T19:36:52.738Z,99.90
2019-05-20T19:39:18.892Z,99.90
2019-05-20T19:41:45.030Z,99.90
2019-05-20T19:44:13.464Z,99.90
2019-05-20T19:46:39.675Z,99.90
2019-05-20T19:49:05.816Z,99.90
2019-05-20T19:51:31.849Z,99.90
2019-05-20T19:53:57.964Z,99.90
2019-05-20T19:56:24.108Z,99.90
2019-05-20T19:58:50.191Z,99.90
2019-05-20T20:01:16.356Z,99.90
2019-05-20T20:03:43.550Z,99.90
2019-05-20T20:06:09.632Z,99.90
2019-05-20T20:08:35.674Z,99.90
2019-05-20T20:11:03.497Z,99.90
2019-05-20T20:13:29.533Z,99.90
2019-05-20T20:15:56.783Z,99.90
2019-05-20T20:18:22.815Z,99.90
2019-05-20T20:20:50.697Z,99.90
2019-05-20T20:23:16.805Z,99.90
2019-05-20T20:25:42.931Z,99.90
2019-05-20T20:28:09.057Z,99.90
2019-05-20T20:30:35.089Z,99.90
2019-05-20T20:33:01.131Z,99.90
2019-05-20T20:35:37.679Z,99.90
2019-05-20T20:37:55.503Z,99.90
2019-05-20T20:40:21.647Z,99.90
2019-05-20T20:42:49.824Z,99.90
2019-05-20T20:45:16.091Z,99.90
2019-05-20T20:47:43.832Z,99.90
2019-05-20T20:50:10.510Z,99.90
2019-05-20T20:52:36.708Z,99.90
2019-05-20T20:55:04.798Z,99.90
2019-05-20T20:57:30.875Z,99.90
2019-05-20T20:59:56.904Z,99.90
2019-05-20T21:02:23.581Z,99.90
2019-05-20T21:04:49.606Z,99.90
2019-05-20T21:07:15.653Z,99.90
2019-05-20T21:09:42.356Z,99.90
2019-05-20T21:12:08.846Z,99.90
2019-05-20T21:14:34.923Z,99.90
2019-05-20T21:17:01.039Z,99.90
2019-05-20T21:19:28.758Z,99.90
2019-05-20T21:21:54.791Z,99.90
2019-05-20T21:24:21.425Z,99.90
2019-05-20T21:26:47.507Z,99.90
2019-05-20T21:29:13.574Z,99.90
2019-05-20T21:31:39.615Z,99.90
2019-05-20T21:34:05.672Z,99.90
2019-05-20T21:36:46.509Z,99.90
2019-05-20T21:39:00.041Z,99.90
2019-05-20T21:41:26.339Z,99.90
2019-05-20T21:43:52.374Z,99.90
2019-05-20T21:46:18.838Z,99.90
2019-05-20T21:48:44.916Z,99.90
2019-05-20T21:51:10.980Z,99.90
2019-05-20T21:53:37.033Z,99.90
2019-05-20T21:56:03.551Z,99.90
2019-05-20T21:58:29.586Z,99.90
2019-05-20T22:00:55.644Z,99.90
2019-05-20T22:03:24.806Z,99.90
2019-05-20T22:05:50.161Z,99.90
2019-05-20T22:08:17.023Z,99.90
2019-05-20T22:10:44.350Z,99.90
2019-05-20T22:13:10.475Z,99.90
2019-05-20T22:15:36.510Z,99.90
2019-05-20T22:18:02.686Z,99.90
2019-05-20T22:20:30.528Z,99.90
2019-05-20T22:23:14.923Z,99.90
2019-05-20T22:25:41.062Z,99.90
2019-05-20T22:28:07.110Z,99.90
2019-05-20T22:30:33.146Z,99.90
2019-05-20T22:32:59.265Z,99.90
2019-05-20T22:35:25.299Z,99.90
2019-05-20T22:37:51.367Z,99.90
2019-05-20T22:40:17.830Z,99.90
2019-05-20T22:42:44.511Z,99.90
2019-05-20T22:45:10.879Z,99.90
2019-05-20T22:47:36.907Z,99.90
2019-05-20T22:50:03.783Z,99.90
2019-05-20T22:52:29.825Z,99.90
2019-05-20T22:54:55.877Z,99.90
2019-05-20T22:57:21.946Z,99.90
2019-05-20T22:59:49.742Z,99.90
2019-05-20T23:02:15.786Z,99.90
2019-05-20T23:04:41.830Z,99.90
2019-05-20T23:07:08.065Z,99.90
2019-05-20T23:09:35.153Z,99.90
2019-05-20T23:12:01.222Z,99.90
2019-05-20T23:14:27.339Z,99.90
2019-05-20T23:16:55.206Z,99.90
2019-05-20T23:19:21.350Z,99.90
2019-05-20T23:21:47.510Z,99.90
2019-05-20T23:24:14.015Z,99.90
2019-05-20T23:26:40.182Z,99.90
2019-05-20T23:29:06.249Z,99.90
2019-05-20T23:31:32.406Z,99.90
2019-05-20T23:34:11.770Z,99.90
2019-05-20T23:36:26.387Z,99.90
2019-05-20T23:38:52.448Z,99.90
2019-05-20T23:41:18.502Z,99.90
2019-05-20T23:43:44.550Z,99.90
2019-05-20T23:46:11.277Z,99.90
2019-05-20T23:48:37.337Z,99.90
2019-05-20T23:51:06.102Z,99.90
2019-05-20T23:53:32.217Z,99.90
2019-05-20T23:56:00.289Z,99.90
2019-05-20T23:58:26.479Z,99.90
